createdAt,value
2018-12-08T00:00:21.279Z,39.87
2018-12-08T00:02:53.884Z,37.60
2018-12-08T00:05:26.992Z,39.30
2018-12-08T00:07:59.167Z,41.03
2018-12-08T00:10:30.822Z,45.20
2018-12-08T00:13:02.709Z,39.67
2018-12-08T00:15:34.508Z,40.73
2018-12-08T00:18:06.825Z,44.47
2018-12-08T00:20:38.936Z,37.40
2018-12-08T00:23:11.214Z,39.43
2018-12-08T00:25:43.376Z,26.53
2018-12-08T00:28:15.398Z,29.00
2018-12-08T00:31:03.538Z,35.53
2018-12-08T00:33:35.458Z,37.83
2018-12-08T00:36:07.722Z,36.37
2018-12-08T00:38:40.158Z,32.83
2018-12-08T00:41:12.131Z,34.20
2018-12-08T00:43:44.094Z,31.30
2018-12-08T00:46:16.401Z,33.87
2018-12-08T00:48:48.515Z,30.60
2018-12-08T00:51:21.548Z,35.73
2018-12-08T00:53:53.499Z,35.13
2018-12-08T00:56:25.527Z,37.17
2018-12-08T00:58:58.552Z,43.17
2018-12-08T01:01:30.657Z,35.13
2018-12-08T01:04:02.548Z,38.03
2018-12-08T01:06:34.859Z,33.43
2018-12-08T01:09:09.829Z,36.97
2018-12-08T01:11:42.187Z,32.43
2018-12-08T01:14:15.002Z,35.83
2018-12-08T01:16:47.683Z,40.87
2018-12-08T01:19:19.878Z,37.57
2018-12-08T01:21:52.035Z,36.43
2018-12-08T01:24:24.158Z,32.13
2018-12-08T01:26:56.172Z,30.60
2018-12-08T01:29:28.457Z,32.63
2018-12-08T01:32:00.599Z,33.70
2018-12-08T01:34:32.721Z,27.33
2018-12-08T01:37:04.545Z,35.60
2018-12-08T01:39:36.915Z,33.07
2018-12-08T01:42:08.846Z,37.13
2018-12-08T01:44:40.961Z,37.77
2018-12-08T01:47:13.305Z,41.50
2018-12-08T01:49:45.309Z,47.67
2018-12-08T01:52:17.388Z,40.67
2018-12-08T01:54:49.588Z,35.63
2018-12-08T01:57:21.866Z,53.07
2018-12-08T01:59:53.606Z,50.43
2018-12-08T02:02:25.469Z,44.23
2018-12-08T02:04:57.348Z,39.00
2018-12-08T02:07:29.533Z,35.83
2018-12-08T02:10:01.853Z,35.80
2018-12-08T02:12:33.811Z,39.20
2018-12-08T02:15:06.086Z,45.00
2018-12-08T02:17:38.167Z,39.93
2018-12-08T02:20:10.453Z,33.47
2018-12-08T02:22:43.137Z,38.73
2018-12-08T02:25:15.293Z,41.37
2018-12-08T02:27:48.265Z,43.37
2018-12-08T02:30:21.077Z,47.17
2018-12-08T02:33:06.924Z,37.53
2018-12-08T02:35:39.650Z,40.27
2018-12-08T02:38:12.275Z,42.03
2018-12-08T02:40:45.104Z,44.47
2018-12-08T02:43:17.590Z,40.67
2018-12-08T02:45:49.556Z,36.60
2018-12-08T02:48:21.596Z,38.93
2018-12-08T02:50:53.829Z,44.07
2018-12-08T02:53:25.784Z,39.30
2018-12-08T02:55:57.891Z,45.50
2018-12-08T02:58:30.145Z,38.00
2018-12-08T03:01:02.473Z,36.63
2018-12-08T03:03:34.435Z,42.07
2018-12-08T03:06:07.282Z,40.07
2018-12-08T03:08:39.729Z,50.47
2018-12-08T03:11:11.751Z,33.60
2018-12-08T03:13:43.686Z,42.73
2018-12-08T03:19:20.403Z,41.90
2018-12-08T03:29:12.294Z,45.70
2018-12-08T03:31:44.609Z,39.83
2018-12-08T03:34:17.403Z,42.10
2018-12-08T03:37:16.827Z,41.07
2018-12-08T03:40:09.906Z,44.20
2018-12-08T03:42:42.048Z,40.77
2018-12-08T03:45:14.090Z,46.40
2018-12-08T03:47:45.985Z,49.43
2018-12-08T03:50:18.874Z,56.43
2018-12-08T03:52:54.921Z,56.13
2018-12-08T03:55:33.895Z,55.43
2018-12-08T03:58:05.917Z,58.50
2018-12-08T04:00:41.730Z,51.47
2018-12-08T04:03:13.772Z,51.80
2018-12-08T04:05:46.019Z,51.57
2018-12-08T04:08:20.895Z,56.23
2018-12-08T04:10:54.248Z,49.07
2018-12-08T04:13:26.524Z,51.83
2018-12-08T04:15:58.465Z,47.40
2018-12-08T04:18:36.112Z,68.90
2018-12-08T04:21:14.293Z,66.37
2018-12-08T04:23:47.153Z,53.67
2018-12-08T04:26:19.873Z,58.13
2018-12-08T04:28:51.985Z,55.83
2018-12-08T04:31:24.824Z,64.37
2018-12-08T04:33:57.803Z,70.13
2018-12-08T04:36:31.019Z,64.27
2018-12-08T04:39:02.777Z,58.17
2018-12-08T04:41:35.273Z,57.90
2018-12-08T04:44:08.496Z,55.17
2018-12-08T04:46:40.888Z,58.13
2018-12-08T04:49:13.205Z,50.50
2018-12-08T04:51:45.245Z,52.77
2018-12-08T04:54:16.774Z,48.27
2018-12-08T04:56:49.397Z,49.03
2018-12-08T04:59:21.564Z,52.83
2018-12-08T05:01:53.471Z,53.37
2018-12-08T05:04:33.443Z,63.23
2018-12-08T05:07:05.400Z,52.33
2018-12-08T05:09:39.514Z,58.83
2018-12-08T05:12:11.894Z,63.93
2018-12-08T05:14:43.971Z,62.47
2018-12-08T05:17:16.255Z,54.33
2018-12-08T05:19:48.337Z,49.03
2018-12-08T05:22:20.286Z,62.13
2018-12-08T05:24:52.791Z,54.07
2018-12-08T05:27:25.914Z,56.57
2018-12-08T05:29:59.393Z,60.70
2018-12-08T05:32:31.824Z,61.30
2018-12-08T05:35:05.786Z,53.60
2018-12-08T05:37:45.830Z,49.83
2018-12-08T05:40:17.834Z,51.17
2018-12-08T05:42:50.083Z,62.23
2018-12-08T05:48:01.229Z,64.77
2018-12-08T05:50:33.706Z,65.00
2018-12-08T05:53:06.997Z,74.07
2018-12-08T05:55:41.184Z,66.43
2018-12-08T05:58:14.631Z,77.00
2018-12-08T06:00:46.982Z,78.73
2018-12-08T06:03:19.653Z,73.90
2018-12-08T06:05:52.256Z,92.73
2018-12-08T06:08:24.714Z,70.40
2018-12-08T06:10:56.779Z,63.50
2018-12-08T06:13:28.985Z,71.20
2018-12-08T06:16:01.379Z,79.90
2018-12-08T06:18:33.730Z,96.17
2018-12-08T06:21:06.566Z,77.97
2018-12-08T06:23:40.291Z,103.83
2018-12-08T06:26:20.845Z,79.60
2018-12-08T06:28:57.733Z,76.30
2018-12-08T06:31:29.994Z,64.93
2018-12-08T06:34:02.435Z,77.03
2018-12-08T06:36:34.773Z,78.63
2018-12-08T06:39:07.763Z,76.70
2018-12-08T06:41:40.402Z,79.13
2018-12-08T06:44:13.223Z,72.50
2018-12-08T06:46:46.178Z,69.30
2018-12-08T06:49:19.033Z,73.77
2018-12-08T06:51:51.513Z,74.13
2018-12-08T06:54:23.983Z,77.73
2018-12-08T06:56:57.219Z,71.60
2018-12-08T06:59:30.318Z,93.37
2018-12-08T07:02:02.753Z,80.43
2018-12-08T07:04:36.392Z,108.87
2018-12-08T07:07:08.789Z,110.80
2018-12-08T07:09:41.573Z,165.77
2018-12-08T07:12:13.772Z,573.37
2018-12-08T07:14:46.587Z,285.73
2018-12-08T07:17:19.154Z,193.03
2018-12-08T07:19:51.676Z,129.60
2018-12-08T07:22:24.262Z,123.63
2018-12-08T07:24:56.549Z,113.77
2018-12-08T07:27:29.394Z,97.53
2018-12-08T07:30:03.962Z,103.80
2018-12-08T07:32:38.908Z,96.47
2018-12-08T07:35:21.473Z,93.10
2018-12-08T07:37:59.613Z,110.17
2018-12-08T07:40:31.806Z,98.27
2018-12-08T07:43:05.350Z,113.83
2018-12-08T07:45:38.390Z,117.43
2018-12-08T07:48:11.576Z,119.40
2018-12-08T07:50:44.200Z,117.93
2018-12-08T07:53:16.645Z,115.03
2018-12-08T07:55:49.368Z,112.80
2018-12-08T07:58:22.329Z,130.13
2018-12-08T08:00:54.619Z,109.03
2018-12-08T08:03:26.942Z,115.53
2018-12-08T08:05:59.937Z,99.47
2018-12-08T08:08:32.495Z,92.57
2018-12-08T08:11:04.835Z,114.60
2018-12-08T08:13:37.408Z,114.23
2018-12-08T08:16:09.837Z,103.83
2018-12-08T08:18:42.161Z,110.67
2018-12-08T08:21:14.208Z,118.40
2018-12-08T08:23:46.866Z,121.73
2018-12-08T08:26:19.418Z,122.50
2018-12-08T08:28:53.752Z,111.97
2018-12-08T08:31:26.744Z,120.70
2018-12-08T08:34:00.634Z,115.80
2018-12-08T08:36:35.548Z,131.53
2018-12-08T08:39:10.396Z,130.80
2018-12-08T08:41:42.558Z,132.27
2018-12-08T08:44:15.586Z,147.80
2018-12-08T08:46:49.354Z,155.07
2018-12-08T08:49:22.028Z,150.53
2018-12-08T08:51:55.503Z,148.23
2018-12-08T08:54:30.664Z,149.67
2018-12-08T08:57:04.394Z,145.97
2018-12-08T08:59:37.177Z,145.07
2018-12-08T09:02:11.289Z,163.53
2018-12-08T09:04:44.676Z,149.57
2018-12-08T09:07:17.198Z,141.43
2018-12-08T09:09:51.170Z,148.63
2018-12-08T09:12:23.565Z,154.07
2018-12-08T09:14:56.433Z,143.43
2018-12-08T09:17:29.982Z,110.80
2018-12-08T09:20:03.739Z,124.10
2018-12-08T09:22:38.315Z,121.93
2018-12-08T09:25:13.627Z,123.40
2018-12-08T09:27:47.132Z,102.27
2018-12-08T09:30:20.553Z,112.77
2018-12-08T09:32:53.379Z,131.70
2018-12-08T09:35:27.133Z,126.87
2018-12-08T09:38:00.174Z,128.23
2018-12-08T09:40:35.541Z,132.90
2018-12-08T09:43:09.192Z,140.87
2018-12-08T09:45:42.235Z,143.97
2018-12-08T09:48:15.322Z,136.23
2018-12-08T09:50:47.900Z,145.00
2018-12-08T09:53:22.369Z,137.90
2018-12-08T09:55:57.616Z,126.63
2018-12-08T09:58:30.977Z,167.00
2018-12-08T10:01:04.011Z,134.37
2018-12-08T10:03:37.600Z,151.17
2018-12-08T10:06:10.951Z,140.77
2018-12-08T10:08:43.319Z,143.57
2018-12-08T10:11:18.011Z,151.87
2018-12-08T10:13:51.833Z,151.23
2018-12-08T10:16:25.864Z,168.87
2018-12-08T10:19:01.538Z,164.37
2018-12-08T10:21:41.583Z,155.87
2018-12-08T10:24:17.049Z,208.60
2018-12-08T10:26:50.351Z,173.90
2018-12-08T10:29:22.865Z,158.60
2018-12-08T10:31:56.674Z,164.77
2018-12-08T10:34:30.263Z,179.70
2018-12-08T10:38:06.532Z,198.87
2018-12-08T10:40:40.614Z,212.93
2018-12-08T10:43:14.212Z,200.80
2018-12-08T10:45:46.969Z,244.17
2018-12-08T10:48:20.577Z,238.53
2018-12-08T10:50:53.894Z,211.17
2018-12-08T10:53:27.843Z,194.17
2018-12-08T10:56:01.254Z,176.17
2018-12-08T10:58:34.445Z,189.73
2018-12-08T11:01:11.900Z,189.40
2018-12-08T11:03:52.358Z,192.17
2018-12-08T11:06:24.896Z,176.47
2018-12-08T11:08:58.422Z,149.10
2018-12-08T11:11:32.413Z,143.97
2018-12-08T11:14:05.420Z,152.07
2018-12-08T11:16:39.504Z,128.63
2018-12-08T11:19:12.408Z,135.57
2018-12-08T11:21:45.660Z,134.53
2018-12-08T11:24:19.431Z,112.10
2018-12-08T11:26:53.909Z,109.07
2018-12-08T11:29:27.090Z,119.10
2018-12-08T11:32:00.727Z,106.27
2018-12-08T11:34:33.853Z,108.27
2018-12-08T11:37:06.961Z,121.10
2018-12-08T11:39:40.825Z,110.13
2018-12-08T11:42:14.978Z,91.83
2018-12-08T11:44:48.804Z,84.20
2018-12-08T11:47:24.530Z,131.57
2018-12-08T11:49:57.737Z,102.50
2018-12-08T11:52:32.873Z,100.77
2018-12-08T11:55:06.255Z,106.87
2018-12-08T11:57:40.343Z,96.07
2018-12-08T12:00:16.097Z,97.77
2018-12-08T12:02:50.249Z,85.93
2018-12-08T12:05:25.801Z,85.67
2018-12-08T12:07:58.670Z,103.73
2018-12-08T12:10:34.012Z,107.07
2018-12-08T12:13:07.663Z,117.13
2018-12-08T12:15:42.287Z,128.77
2018-12-08T12:18:17.135Z,168.17
2018-12-08T12:20:50.578Z,165.40
2018-12-08T12:23:24.212Z,114.83
2018-12-08T12:25:57.113Z,110.67
2018-12-08T12:28:31.703Z,114.57
2018-12-08T12:31:04.825Z,109.67
2018-12-08T12:33:39.397Z,113.00
2018-12-08T12:36:12.769Z,115.47
2018-12-08T12:38:46.318Z,120.60
2018-12-08T12:41:19.895Z,107.77
2018-12-08T12:43:52.973Z,116.40
2018-12-08T12:46:27.153Z,123.33
2018-12-08T12:49:03.037Z,128.37
2018-12-08T12:51:36.401Z,115.07
2018-12-08T12:54:09.662Z,111.87
2018-12-08T12:56:43.114Z,109.23
2018-12-08T12:59:16.163Z,112.17
2018-12-08T13:01:49.812Z,103.27
2018-12-08T13:04:21.986Z,104.33
2018-12-08T13:06:55.552Z,119.47
2018-12-08T13:09:28.229Z,123.37
2018-12-08T13:12:02.295Z,143.20
2018-12-08T13:14:35.034Z,148.80
2018-12-08T13:17:07.631Z,142.60
2018-12-08T13:19:40.772Z,160.90
2018-12-08T13:22:14.772Z,155.87
2018-12-08T13:24:48.107Z,148.53
2018-12-08T13:27:21.554Z,123.33
2018-12-08T13:29:54.541Z,139.80
2018-12-08T13:32:28.078Z,141.30
2018-12-08T13:35:01.664Z,138.60
2018-12-08T13:37:35.326Z,163.00
2018-12-08T13:40:08.537Z,158.23
2018-12-08T13:42:43.164Z,149.60
2018-12-08T13:45:20.940Z,164.47
2018-12-08T13:47:54.534Z,147.90
2018-12-08T13:50:27.339Z,136.60
2018-12-08T13:53:01.151Z,138.87
2018-12-08T13:55:38.898Z,151.23
2018-12-08T13:58:11.656Z,161.87
2018-12-08T14:00:46.211Z,154.27
2018-12-08T14:03:19.876Z,149.43
2018-12-08T14:05:53.927Z,171.73
2018-12-08T14:08:27.970Z,151.53
2018-12-08T14:11:02.139Z,143.93
2018-12-08T14:13:36.546Z,179.97
2018-12-08T14:16:10.768Z,183.10
2018-12-08T14:18:44.671Z,178.50
2018-12-08T14:21:19.530Z,162.70
2018-12-08T14:23:54.885Z,168.83
2018-12-08T14:26:30.265Z,150.07
2018-12-08T14:29:03.622Z,138.00
2018-12-08T14:31:37.385Z,152.60
2018-12-08T14:34:14.616Z,137.93
2018-12-08T14:36:50.778Z,141.83
2018-12-08T14:39:26.924Z,151.20
2018-12-08T14:42:00.945Z,135.93
2018-12-08T14:44:38.378Z,163.17
2018-12-08T14:47:12.870Z,148.03
2018-12-08T14:49:52.180Z,158.83
2018-12-08T14:52:29.291Z,154.70
2018-12-08T14:55:02.406Z,171.10
2018-12-08T14:57:36.082Z,168.87
2018-12-08T15:00:14.723Z,162.97
2018-12-08T15:02:51.171Z,168.00
2018-12-08T15:05:32.660Z,151.80
2018-12-08T15:08:07.201Z,147.27
2018-12-08T15:10:43.699Z,160.97
2018-12-08T15:13:20.656Z,156.70
2018-12-08T15:15:57.113Z,160.13
2018-12-08T15:18:30.495Z,159.03
2018-12-08T15:21:07.189Z,168.13
2018-12-08T15:23:44.608Z,162.00
2018-12-08T15:26:18.598Z,155.33
2018-12-08T15:28:53.014Z,159.63
2018-12-08T15:31:27.792Z,142.70
2018-12-08T15:34:02.704Z,145.97
2018-12-08T15:36:38.483Z,148.50
2018-12-08T15:39:15.435Z,148.53
2018-12-08T15:42:00.343Z,165.50
2018-12-08T15:44:36.726Z,163.73
2018-12-08T15:47:12.529Z,187.53
2018-12-08T15:49:51.997Z,172.23
2018-12-08T15:52:28.235Z,164.10
2018-12-08T15:55:03.928Z,175.80
2018-12-08T15:57:37.813Z,168.77
2018-12-08T16:00:17.747Z,171.80
2018-12-08T16:02:53.988Z,180.07
2018-12-08T16:05:30.447Z,162.80
2018-12-08T16:08:08.816Z,171.47
2018-12-08T16:10:44.493Z,183.23
2018-12-08T16:13:19.348Z,172.33
2018-12-08T16:15:53.581Z,168.77
2018-12-08T16:18:30.613Z,177.23
2018-12-08T16:21:13.202Z,177.30
2018-12-08T16:23:49.714Z,160.07
2018-12-08T16:26:30.679Z,172.80
2018-12-08T16:29:05.689Z,171.33
2018-12-08T16:31:44.027Z,194.20
2018-12-08T16:34:23.491Z,186.40
2018-12-08T16:36:57.558Z,186.20
2018-12-08T16:39:33.560Z,196.27
2018-12-08T16:42:08.731Z,177.13
2018-12-08T16:44:44.696Z,178.47
2018-12-08T16:47:19.876Z,178.63
2018-12-08T16:50:01.038Z,195.13
2018-12-08T16:52:38.290Z,202.17
2018-12-08T16:55:12.569Z,271.33
2018-12-08T16:57:48.299Z,246.97
2018-12-08T17:00:24.984Z,219.50
2018-12-08T17:03:04.707Z,210.80
2018-12-08T17:05:42.747Z,213.00
2018-12-08T17:08:19.716Z,199.20
2018-12-08T17:10:53.652Z,159.93
2018-12-08T17:13:28.753Z,155.00
2018-12-08T17:16:05.365Z,151.33
2018-12-08T17:18:42.871Z,170.07
2018-12-08T17:21:25.025Z,178.03
2018-12-08T17:24:00.780Z,170.53
2018-12-08T17:26:38.128Z,213.17
2018-12-08T17:29:18.910Z,195.60
2018-12-08T17:31:58.079Z,206.23
2018-12-08T17:34:34.580Z,187.13
2018-12-08T17:37:11.402Z,186.03
2018-12-08T17:39:47.626Z,170.30
2018-12-08T17:42:23.802Z,170.37
2018-12-08T17:44:57.411Z,174.77
2018-12-08T17:47:31.058Z,159.43
2018-12-08T17:50:06.265Z,175.33
2018-12-08T17:52:39.704Z,176.23
2018-12-08T17:55:12.604Z,187.97
2018-12-08T17:57:46.405Z,168.77
2018-12-08T18:00:20.144Z,177.37
2018-12-08T18:02:54.625Z,172.33
2018-12-08T18:05:29.123Z,169.80
2018-12-08T18:08:02.664Z,177.03
2018-12-08T18:10:36.703Z,180.17
2018-12-08T18:13:09.825Z,173.43
2018-12-08T18:15:43.991Z,202.37
2018-12-08T18:18:17.120Z,182.77
2018-12-08T18:20:50.291Z,171.10
2018-12-08T18:23:24.216Z,183.43
2018-12-08T18:25:59.546Z,192.30
2018-12-08T18:28:37.596Z,173.23
2018-12-08T18:31:11.635Z,193.80
2018-12-08T18:33:47.308Z,201.87
2018-12-08T18:36:23.018Z,209.37
2018-12-08T18:39:02.724Z,208.83
2018-12-08T18:41:42.764Z,213.27
2018-12-08T18:44:16.021Z,217.20
2018-12-08T18:46:50.181Z,188.37
2018-12-08T18:49:26.839Z,169.37
2018-12-08T18:52:02.312Z,152.50
2018-12-08T18:54:36.003Z,180.33
2018-12-08T18:57:10.034Z,177.97
2018-12-08T18:59:45.345Z,169.53
2018-12-08T19:02:23.123Z,175.37
2018-12-08T19:04:59.360Z,194.13
2018-12-08T19:07:36.600Z,174.77
2018-12-08T19:10:12.058Z,189.63
2018-12-08T19:12:45.408Z,203.83
2018-12-08T19:15:21.205Z,190.83
2018-12-08T19:21:13.289Z,183.87
2018-12-08T19:23:47.795Z,215.40
2018-12-08T19:26:23.244Z,206.13
2018-12-08T19:28:58.450Z,208.90
2018-12-08T19:31:33.435Z,213.23
2018-12-08T19:34:07.146Z,210.20
2018-12-08T19:36:43.169Z,203.67
2018-12-08T19:39:18.838Z,223.43
2018-12-08T19:41:52.413Z,214.00
2018-12-08T19:44:26.639Z,199.83
2018-12-08T19:47:00.448Z,217.97
2018-12-08T19:49:35.352Z,217.97
2018-12-08T19:52:09.652Z,224.50
2018-12-08T19:54:43.281Z,219.53
2018-12-08T19:57:19.458Z,216.40
2018-12-08T19:59:56.696Z,215.43
2018-12-08T20:09:25.331Z,229.83
2018-12-08T20:11:58.883Z,247.50
2018-12-08T20:14:34.899Z,247.60
2018-12-08T20:17:11.713Z,255.13
2018-12-08T20:19:47.043Z,265.10
2018-12-08T20:22:21.465Z,249.43
2018-12-08T20:24:58.653Z,251.43
2018-12-08T20:27:32.792Z,256.03
2018-12-08T20:30:07.613Z,283.37
2018-12-08T20:32:41.012Z,279.17
2018-12-08T20:35:14.420Z,264.93
2018-12-08T20:37:47.391Z,263.87
2018-12-08T20:40:21.219Z,263.17
2018-12-08T20:42:56.008Z,246.90
2018-12-08T20:45:29.607Z,245.70
2018-12-08T20:48:02.531Z,256.20
2018-12-08T20:50:35.627Z,257.97
2018-12-08T20:53:08.308Z,278.43
2018-12-08T20:55:43.427Z,268.70
2018-12-08T20:58:16.781Z,280.70
2018-12-08T21:00:49.339Z,257.77
2018-12-08T21:03:22.399Z,286.93
2018-12-08T21:05:56.485Z,257.27
2018-12-08T21:08:29.918Z,281.33
2018-12-08T21:11:04.492Z,286.07
2018-12-08T21:13:38.103Z,298.47
2018-12-08T21:16:11.997Z,279.53
2018-12-08T21:18:46.334Z,273.90
2018-12-08T21:21:21.509Z,260.07
2018-12-08T21:23:54.602Z,262.03
2018-12-08T21:26:29.281Z,250.00
2018-12-08T21:29:01.884Z,245.60
2018-12-08T21:31:36.550Z,228.27
2018-12-08T21:34:12.352Z,227.07
2018-12-08T21:36:46.346Z,239.83
2018-12-08T21:39:19.893Z,234.83
2018-12-08T21:41:53.973Z,227.43
2018-12-08T21:44:27.885Z,245.10
2018-12-08T21:47:04.305Z,249.93
2018-12-08T21:49:36.956Z,271.20
2018-12-08T21:52:10.618Z,250.47
2018-12-08T21:54:43.464Z,277.50
2018-12-08T21:57:15.659Z,243.27
2018-12-08T21:59:48.355Z,257.57
2018-12-08T22:02:21.496Z,268.03
2018-12-08T22:04:54.268Z,265.10
2018-12-08T22:07:28.128Z,224.97
2018-12-08T22:10:01.279Z,238.10
2018-12-08T22:12:35.445Z,223.77
2018-12-08T22:15:16.077Z,250.03
2018-12-08T22:17:48.925Z,234.33
2018-12-08T22:20:21.532Z,231.63
2018-12-08T22:22:55.070Z,221.87
2018-12-08T22:25:27.511Z,212.40
2018-12-08T22:27:59.918Z,209.87
2018-12-08T22:30:32.644Z,217.30
2018-12-08T22:33:04.987Z,224.70
2018-12-08T22:35:37.205Z,239.57
2018-12-08T22:38:09.227Z,229.50
2018-12-08T22:40:41.511Z,227.23
2018-12-08T22:43:13.917Z,241.37
2018-12-08T22:45:46.116Z,240.07
2018-12-08T22:48:18.886Z,253.03
2018-12-08T22:50:51.571Z,260.83
2018-12-08T22:53:23.644Z,223.30
2018-12-08T22:55:57.049Z,228.57
2018-12-08T22:58:29.304Z,236.13
2018-12-08T23:01:01.537Z,268.97
2018-12-08T23:03:33.991Z,255.03
2018-12-08T23:06:06.335Z,252.33
2018-12-08T23:08:39.721Z,217.37
2018-12-08T23:11:12.280Z,256.27
2018-12-08T23:13:46.180Z,237.17
2018-12-08T23:16:18.494Z,231.77
2018-12-08T23:18:50.662Z,234.33
2018-12-08T23:21:23.250Z,213.37
2018-12-08T23:23:55.497Z,218.13
2018-12-08T23:26:27.488Z,210.57
2018-12-08T23:28:59.559Z,215.37
2018-12-08T23:31:31.717Z,204.67
2018-12-08T23:34:04.196Z,222.67
2018-12-08T23:36:36.616Z,209.17
2018-12-08T23:39:09.542Z,230.90
2018-12-08T23:41:41.679Z,218.50
2018-12-08T23:44:13.812Z,219.50
2018-12-08T23:46:46.131Z,218.63
2018-12-08T23:49:18.227Z,224.97
2018-12-08T23:51:50.062Z,205.03
2018-12-08T23:54:22.044Z,210.33
2018-12-08T23:56:55.830Z,195.70
2018-12-08T23:59:27.849Z,191.77
